Time,TemperatureF,DewpointF,PressureIn,WindDirection,WindDirectionDegrees,WindSpeedMPH,WindSpeedGustMPH,Humidity,HourlyPrecipIn,Conditions,Clouds,dailyrainin,SoftwareType,DateUTC
2013-03-13 00:47:00,48.7,47.1,30.16,NE,45,0.0,-999.0,94,-99.99,,,0.00,Acu-Link.com,2013-03-13 07:47:00,
2013-03-13 01:02:00,48.4,46.8,30.16,ESE,112,0.0,-999.0,94,-99.99,,,0.00,Acu-Link.com,2013-03-13 08:02:00,
2013-03-13 01:17:00,48.2,46.6,30.16,NW,315,0.0,-999.0,94,-99.99,,,0.00,Acu-Link.com,2013-03-13 08:17:00,
2013-03-13 01:32:00,47.8,46.4,30.18,ESE,112,0.0,-999.0,95,-99.99,,,0.00,Acu-Link.com,2013-03-13 08:32:00,
2013-03-13 01:47:00,47.8,46.4,30.17,ESE,112,0.0,-999.0,95,-99.99,,,0.00,Acu-Link.com,2013-03-13 08:47:00,
2013-03-13 02:02:00,47.7,46.3,30.17,SSW,202,0.0,-999.0,95,-99.99,,,0.00,Acu-Link.com,2013-03-13 09:02:00,
2013-03-13 02:18:00,47.5,46.1,30.18,ESE,112,0.0,-999.0,95,-99.99,,,0.00,Acu-Link.com,2013-03-13 09:18:00,
2013-03-13 02:33:00,46.8,45.4,30.17,East,90,0.0,-999.0,95,-99.99,,,0.00,Acu-Link.com,2013-03-13 09:33:00,
2013-03-13 02:48:00,46.4,45.0,30.18,ESE,112,0.0,-999.0,95,-99.99,,,0.00,Acu-Link.com,2013-03-13 09:48:00,
2013-03-13 03:03:00,45.9,44.5,30.17,ESE,112,0.0,-999.0,95,-99.99,,,0.00,Acu-Link.com,2013-03-13 10:03:00,
2013-03-13 03:19:00,45.5,44.2,30.17,ESE,112,0.0,-999.0,95,-99.99,,,0.00,Acu-Link.com,2013-03-13 10:19:00,
2013-03-13 03:34:00,45.0,44.5,30.17,ESE,112,0.0,-999.0,98,-99.99,,,0.00,Acu-Link.com,2013-03-13 10:34:00,
2013-03-13 03:49:00,44.6,44.1,30.16,NNE,22,0.0,-999.0,98,-99.99,,,0.00,Acu-Link.com,2013-03-13 10:49:00,
2013-03-13 04:05:00,44.2,43.7,30.17,ESE,112,0.0,-999.0,98,-99.99,,,0.00,Acu-Link.com,2013-03-13 11:05:00,
2013-03-13 04:20:00,43.7,43.2,30.16,South,180,0.0,-999.0,98,-99.99,,,0.00,Acu-Link.com,2013-03-13 11:20:00,
2013-03-13 04:35:00,43.2,42.7,30.15,ESE,112,0.0,-999.0,98,-99.99,,,0.00,Acu-Link.com,2013-03-13 11:35:00,
2013-03-13 04:50:00,43.5,43.0,30.16,NW,315,0.0,-999.0,98,-99.99,,,0.00,Acu-Link.com,2013-03-13 11:50:00,
2013-03-13 05:21:00,43.7,43.2,30.15,NE,45,1.7,-999.0,98,-99.99,,,0.00,Acu-Link.com,2013-03-13 12:21:00,
2013-03-13 05:36:00,44.1,43.6,30.15,ESE,112,0.0,-999.0,98,-99.99,,,0.00,Acu-Link.com,2013-03-13 12:36:00,
2013-03-13 05:52:00,44.4,43.9,30.15,NNE,22,0.0,-999.0,98,-99.99,,,0.00,Acu-Link.com,2013-03-13 12:52:00,
2013-03-13 06:07:00,44.4,43.9,30.17,WSW,247,0.0,-999.0,98,-99.99,,,0.00,Acu-Link.com,2013-03-13 13:07:00,
2013-03-13 06:22:00,44.2,43.7,30.15,ESE,112,0.0,-999.0,98,-99.99,,,0.00,Acu-Link.com,2013-03-13 13:22:00,
2013-03-13 06:38:00,44.2,43.7,30.16,ESE,112,0.0,-999.0,98,-99.99,,,0.00,Acu-Link.com,2013-03-13 13:38:00,
2013-03-13 06:53:00,44.4,43.9,30.15,SW,225,0.0,-999.0,98,-99.99,,,0.00,Acu-Link.com,2013-03-13 13:53:00,
2013-03-13 07:08:00,44.2,43.7,30.14,ESE,112,0.0,-999.0,98,-99.99,,,0.00,Acu-Link.com,2013-03-13 14:08:00,
2013-03-13 07:23:00,44.4,43.9,30.14,North,0,2.2,-999.0,98,-99.99,,,0.00,Acu-Link.com,2013-03-13 14:23:00,
2013-03-13 07:38:00,44.4,43.9,30.13,NE,45,0.0,-999.0,98,-99.99,,,0.00,Acu-Link.com,2013-03-13 14:38:00,
2013-03-13 07:54:00,44.6,44.1,30.12,SSW,202,0.0,-999.0,98,-99.99,,,0.00,Acu-Link.com,2013-03-13 14:54:00,
2013-03-13 08:09:00,44.6,44.1,30.12,South,180,0.0,-999.0,98,-99.99,,,0.00,Acu-Link.com,2013-03-13 15:09:00,
2013-03-13 08:24:00,45.0,44.5,30.12,ENE,67,1.7,-999.0,98,-99.99,,,0.00,Acu-Link.com,2013-03-13 15:24:00,
2013-03-13 08:40:00,45.5,45.0,30.15,WSW,247,0.0,-999.0,98,-99.99,,,0.00,Acu-Link.com,2013-03-13 15:40:00,
2013-03-13 08:55:00,46.8,46.3,30.13,SW,225,2.7,-999.0,98,-99.99,,,0.00,Acu-Link.com,2013-03-13 15:55:00,
2013-03-13 09:10:00,47.8,46.4,30.15,NNW,337,0.0,-999.0,95,-99.99,,,0.00,Acu-Link.com,2013-03-13 16:10:00,
2013-03-13 09:26:00,47.5,46.1,30.17,South,180,0.0,-999.0,95,-99.99,,,0.00,Acu-Link.com,2013-03-13 16:26:00,
2013-03-13 09:41:00,47.8,46.2,30.17,WNW,292,0.0,-999.0,94,-99.99,,,0.00,Acu-Link.com,2013-03-13 16:41:00,
2013-03-13 09:56:00,47.8,46.2,30.16,West,270,0.0,-999.0,94,-99.99,,,0.00,Acu-Link.com,2013-03-13 16:56:00,
2013-03-13 10:11:00,48.9,47.0,30.15,SW,225,0.0,-999.0,93,-99.99,,,0.00,Acu-Link.com,2013-03-13 17:11:00,
2013-03-13 10:27:00,50.4,47.6,30.15,West,270,2.7,-999.0,90,-99.99,,,0.00,Acu-Link.com,2013-03-13 17:27:00,
2013-03-13 10:42:00,51.1,48.0,30.15,WSW,247,4.2,-999.0,89,-99.99,,,0.00,Acu-Link.com,2013-03-13 17:42:00,
2013-03-13 10:57:00,51.6,47.9,30.14,West,270,1.7,-999.0,87,-99.99,,,0.00,Acu-Link.com,2013-03-13 17:57:00,
2013-03-13 11:13:00,52.2,48.4,30.14,NW,315,1.7,-999.0,87,-99.99,,,0.00,Acu-Link.com,2013-03-13 18:13:00,
2013-03-13 11:28:00,54.9,50.5,30.15,WNW,292,1.1,-999.0,85,-99.99,,,0.00,Acu-Link.com,2013-03-13 18:28:00,
2013-03-13 11:43:00,55.0,49.6,30.14,West,270,2.2,-999.0,82,-99.99,,,0.00,Acu-Link.com,2013-03-13 18:43:00,
2013-03-13 11:58:00,57.2,50.4,30.15,South,180,4.2,-999.0,78,-99.99,,,0.00,Acu-Link.com,2013-03-13 18:58:00,
2013-03-13 12:14:00,58.5,50.6,30.14,SW,225,1.7,-999.0,75,-99.99,,,0.00,Acu-Link.com,2013-03-13 19:14:00,
2013-03-13 12:29:00,59.7,51.4,30.14,NE,45,2.2,-999.0,74,-99.99,,,0.00,Acu-Link.com,2013-03-13 19:29:00,
2013-03-13 12:44:00,59.7,49.1,30.14,SW,225,2.2,-999.0,68,-99.99,,,0.00,Acu-Link.com,2013-03-13 19:44:00,
2013-03-13 12:59:00,61.3,51.8,30.13,WNW,292,5.3,-999.0,71,-99.99,,,0.00,Acu-Link.com,2013-03-13 19:59:00,
2013-03-13 13:15:00,60.1,52.5,30.12,West,270,7.3,-999.0,76,-99.99,,,0.00,Acu-Link.com,2013-03-13 20:15:00,
2013-03-13 13:30:00,61.7,53.0,30.12,WSW,247,2.7,-999.0,73,-99.99,,,0.00,Acu-Link.com,2013-03-13 20:30:00,
2013-03-13 13:45:00,63.3,54.1,30.12,WSW,247,5.3,-999.0,72,-99.99,,,0.00,Acu-Link.com,2013-03-13 20:45:00,
2013-03-13 14:00:00,62.8,52.5,30.11,SSW,202,4.7,-999.0,69,-99.99,,,0.00,Acu-Link.com,2013-03-13 21:00:00,
2013-03-13 14:15:00,63.7,53.7,30.10,WSW,247,6.3,-999.0,70,-99.99,,,0.00,Acu-Link.com,2013-03-13 21:15:00,
2013-03-13 14:46:00,64.2,51.3,30.09,West,270,3.7,-999.0,63,-99.99,,,0.00,Acu-Link.com,2013-03-13 21:46:00,
2013-03-13 15:01:00,63.7,51.7,30.09,West,270,6.3,-999.0,65,-99.99,,,0.00,Acu-Link.com,2013-03-13 22:01:00,
2013-03-13 15:17:00,62.8,51.7,30.09,SW,225,6.3,-999.0,67,-99.99,,,0.00,Acu-Link.com,2013-03-13 22:17:00,
2013-03-13 15:47:00,61.2,48.9,30.08,SSW,202,6.8,-999.0,64,-99.99,,,0.00,Acu-Link.com,2013-03-13 22:47:00,
2013-03-13 16:02:00,61.3,49.8,30.09,West,270,5.3,-999.0,66,-99.99,,,0.00,Acu-Link.com,2013-03-13 23:02:00,
2013-03-13 16:18:00,60.3,49.7,30.08,SW,225,6.3,-999.0,68,-99.99,,,0.00,Acu-Link.com,2013-03-13 23:18:00,
2013-03-13 16:33:00,58.3,49.7,30.08,WNW,292,4.7,-999.0,73,-99.99,,,0.00,Acu-Link.com,2013-03-13 23:33:00,
2013-03-13 16:48:00,58.3,48.9,30.08,WNW,292,3.7,-999.0,71,-99.99,,,0.00,Acu-Link.com,2013-03-13 23:48:00,
2013-03-13 17:03:00,56.1,48.6,30.08,West,270,3.7,-999.0,76,-99.99,,,0.00,Acu-Link.com,2013-03-14 00:03:00,
2013-03-13 17:19:00,55.4,48.7,30.10,SW,225,4.7,-999.0,78,-99.99,,,0.00,Acu-Link.com,2013-03-14 00:19:00,
2013-03-13 17:34:00,54.1,47.7,30.09,WSW,247,5.8,-999.0,79,-99.99,,,0.00,Acu-Link.com,2013-03-14 00:34:00,
2013-03-13 17:49:00,52.3,47.6,30.08,WSW,247,3.7,-999.0,84,-99.99,,,0.00,Acu-Link.com,2013-03-14 00:49:00,
2013-03-13 18:05:00,51.8,47.4,30.10,West,270,4.2,-999.0,85,-99.99,,,0.00,Acu-Link.com,2013-03-14 01:05:00,
2013-03-13 18:20:00,50.7,47.0,30.09,SW,225,2.7,-999.0,87,-99.99,,,0.00,Acu-Link.com,2013-03-14 01:20:00,
2013-03-13 18:35:00,49.8,46.7,30.08,SSW,202,4.2,-999.0,89,-99.99,,,0.00,Acu-Link.com,2013-03-14 01:35:00,
2013-03-13 18:50:00,49.6,46.5,30.08,South,180,4.7,-999.0,89,-99.99,,,0.00,Acu-Link.com,2013-03-14 01:50:00,
2013-03-13 19:21:00,49.1,46.3,30.07,West,270,0.0,-999.0,90,-99.99,,,0.00,Acu-Link.com,2013-03-14 02:21:00,
2013-03-13 19:36:00,49.1,46.6,30.08,WSW,247,2.2,-999.0,91,-99.99,,,0.00,Acu-Link.com,2013-03-14 02:36:00,
2013-03-13 19:52:00,48.9,46.4,30.09,WSW,247,3.2,-999.0,91,-99.99,,,0.00,Acu-Link.com,2013-03-14 02:52:00,
2013-03-13 20:22:00,48.7,46.5,30.09,SE,135,0.0,-999.0,92,-99.99,,,0.00,Acu-Link.com,2013-03-14 03:22:00,
2013-03-13 20:38:00,48.4,46.2,30.09,WSW,247,3.7,-999.0,92,-99.99,,,0.00,Acu-Link.com,2013-03-14 03:38:00,
2013-03-13 20:53:00,48.2,46.3,30.09,West,270,3.7,-999.0,93,-99.99,,,0.00,Acu-Link.com,2013-03-14 03:53:00,
2013-03-13 21:08:00,48.0,46.1,30.08,SW,225,3.2,-999.0,93,-99.99,,,0.00,Acu-Link.com,2013-03-14 04:08:00,
2013-03-13 21:23:00,47.8,45.9,30.08,SW,225,2.7,-999.0,93,-99.99,,,0.00,Acu-Link.com,2013-03-14 04:23:00,
2013-03-13 21:38:00,47.8,45.9,30.07,East,90,0.0,-999.0,93,-99.99,,,0.00,Acu-Link.com,2013-03-14 04:38:00,
2013-03-13 21:54:00,48.0,46.1,30.08,NE,45,0.0,-999.0,93,-99.99,,,0.00,Acu-Link.com,2013-03-14 04:54:00,
2013-03-13 22:09:00,48.0,46.1,30.07,ENE,67,0.0,-999.0,93,-99.99,,,0.00,Acu-Link.com,2013-03-14 05:09:00,
2013-03-13 22:24:00,47.7,45.8,30.07,SSW,202,0.0,-999.0,93,-99.99,,,0.00,Acu-Link.com,2013-03-14 05:24:00,
2013-03-13 22:40:00,47.7,46.1,30.09,East,90,1.7,-999.0,94,-99.99,,,0.00,Acu-Link.com,2013-03-14 05:40:00,
2013-03-13 22:55:00,47.5,45.9,30.07,WNW,292,0.0,-999.0,94,-99.99,,,0.00,Acu-Link.com,2013-03-14 05:55:00,
2013-03-13 23:10:00,47.5,45.9,30.09,SW,225,1.7,-999.0,94,-99.99,,,0.00,Acu-Link.com,2013-03-14 06:10:00,
2013-03-13 23:25:00,47.3,45.7,30.08,SW,225,3.2,-999.0,94,-99.99,,,0.00,Acu-Link.com,2013-03-14 06:25:00,
2013-03-13 23:41:00,46.9,45.5,30.09,SSW,202,0.0,-999.0,95,-99.99,,,0.00,Acu-Link.com,2013-03-14 06:41:00,